Terminal Aerodrome Forecast
Issued by NWS

Current Version | Previous Version | Text Only | Print | Product List | Glossary Off
Versions: 1 2 3 4 5 6 7 8 9 10 11 12 13 14 15 16 17 18 19 20 21 22 23 24 25 26 27 28

778
FTUS41 KRNK 111734
TAFLWB
TAF
KLWB 111734Z 1118/1218 25006KT P6SM FEW250
     FM120600 VRB03KT P6SM BKN040 WS020/25035KT
     FM121000 25008KT P6SM OVC030
     FM121200 27011KT P6SM VCSH BKN008
     FM121400 28012KT 4SM -SN BKN040
     FM121600 29013G21KT P6SM BKN025=

USA.gov is the U.S. government's official web portal to all federal, state and local government web resources and services.